createdAt,value
2019-04-30T00:01:55.768Z,17.20
2019-04-30T00:04:25.286Z,14.20
2019-04-30T00:06:55.633Z,11.17
2019-04-30T00:09:25.657Z,12.20
2019-04-30T00:11:57.864Z,12.57
2019-04-30T00:14:27.578Z,12.23
2019-04-30T00:16:55.939Z,13.07
2019-04-30T00:19:25.945Z,10.97
2019-04-30T00:22:00.054Z,10.77
2019-04-30T00:24:26.040Z,12.33
2019-04-30T00:26:55.372Z,13.50
2019-04-30T00:29:30.169Z,10.03
2019-04-30T00:31:59.325Z,12.20
2019-04-30T00:34:25.652Z,11.03
2019-04-30T00:36:55.966Z,13.63
2019-04-30T00:39:27.044Z,11.43
2019-04-30T00:41:56.736Z,15.53
2019-04-30T00:44:28.362Z,11.50
2019-04-30T00:47:00.607Z,14.37
2019-04-30T00:49:27.026Z,10.13
2019-04-30T00:51:58.126Z,17.70
2019-04-30T00:54:27.914Z,12.97
2019-04-30T00:57:03.743Z,12.80
2019-04-30T00:59:27.781Z,12.90
2019-04-30T01:02:19.991Z,10.80
2019-04-30T01:04:50.792Z,14.13
2019-04-30T01:07:19.727Z,14.07
2019-04-30T01:09:49.841Z,12.97
2019-04-30T01:12:25.506Z,18.33
2019-04-30T01:14:49.825Z,13.33
2019-04-30T01:17:18.997Z,12.90
2019-04-30T01:19:51.049Z,14.10
2019-04-30T01:22:27.356Z,10.33
2019-04-30T01:24:49.733Z,14.67
2019-04-30T01:27:18.935Z,12.27
2019-04-30T01:29:48.729Z,14.23
2019-04-30T01:32:20.989Z,11.37
2019-04-30T01:34:49.842Z,11.90
2019-04-30T01:37:24.749Z,11.07
2019-04-30T01:39:49.579Z,11.33
2019-04-30T01:42:18.671Z,13.33
2019-04-30T01:44:52.493Z,12.30
2019-04-30T01:47:21.367Z,11.80
2019-04-30T01:49:49.585Z,11.53
2019-04-30T01:52:19.370Z,13.07
2019-04-30T01:54:49.072Z,13.33
2019-04-30T01:57:49.167Z,15.13
2019-04-30T02:00:25.645Z,12.53
2019-04-30T02:02:54.679Z,10.07
2019-04-30T02:05:23.626Z,12.07
2019-04-30T02:07:52.626Z,13.83
2019-04-30T02:10:21.632Z,10.00
2019-04-30T02:12:50.588Z,12.53
2019-04-30T02:15:19.579Z,11.80
2019-04-30T02:17:50.327Z,10.47
2019-04-30T02:20:19.308Z,12.37
2019-04-30T02:22:48.694Z,8.23
2019-04-30T02:25:19.406Z,10.83
2019-04-30T02:27:48.907Z,14.03
2019-04-30T02:30:20.697Z,9.70
2019-04-30T02:32:52.062Z,11.27
2019-04-30T02:35:44.374Z,11.13
2019-04-30T02:38:20.478Z,14.47
2019-04-30T02:40:50.784Z,12.13
2019-04-30T02:43:21.309Z,13.47
2019-04-30T02:45:51.164Z,14.13
2019-04-30T02:48:22.080Z,14.53
2019-04-30T02:50:52.012Z,15.37
2019-04-30T02:53:40.222Z,14.30
2019-04-30T02:56:09.974Z,10.70
2019-04-30T02:58:40.997Z,10.50
2019-04-30T03:01:10.276Z,16.50
2019-04-30T03:03:42.586Z,11.80
2019-04-30T03:06:11.591Z,13.63
2019-04-30T03:08:40.586Z,11.20
2019-04-30T03:11:09.816Z,9.97
2019-04-30T03:13:42.558Z,12.50
2019-04-30T03:16:11.532Z,10.77
2019-04-30T03:19:19.496Z,12.47
2019-04-30T03:22:03.359Z,11.77
2019-04-30T03:24:32.323Z,11.07
2019-04-30T03:27:01.330Z,14.10
2019-04-30T03:29:30.566Z,11.60
2019-04-30T03:32:02.884Z,15.30
2019-04-30T03:34:32.482Z,14.87
2019-04-30T03:37:02.152Z,19.60
2019-04-30T03:39:33.788Z,23.13
2019-04-30T03:42:01.845Z,18.43
2019-04-30T03:44:32.421Z,12.50
2019-04-30T03:47:01.604Z,12.47
2019-04-30T03:49:30.560Z,15.67
2019-04-30T03:51:59.992Z,15.93
2019-04-30T03:54:29.456Z,12.13
2019-04-30T03:57:00.760Z,11.50
2019-04-30T03:59:30.408Z,11.60
2019-04-30T04:02:30.046Z,15.00
2019-04-30T04:05:10.275Z,13.20
2019-04-30T04:07:52.572Z,21.63
2019-04-30T04:10:40.388Z,16.53
2019-04-30T04:13:10.348Z,13.17
2019-04-30T04:15:39.999Z,10.67
2019-04-30T04:18:10.733Z,13.80
2019-04-30T04:20:42.935Z,12.33
2019-04-30T04:23:10.516Z,8.03
2019-04-30T04:25:40.063Z,15.57
2019-04-30T04:28:10.110Z,12.27
2019-04-30T04:30:42.601Z,9.30
2019-04-30T04:33:10.191Z,11.90
2019-04-30T04:35:39.428Z,11.67
2019-04-30T04:38:12.257Z,11.60
2019-04-30T04:40:40.048Z,9.27
2019-04-30T04:43:10.383Z,10.90
2019-04-30T04:45:43.389Z,12.77
2019-04-30T04:48:10.172Z,11.30
2019-04-30T04:50:40.006Z,11.93
2019-04-30T04:53:11.498Z,13.17
2019-04-30T04:55:40.125Z,10.70
2019-04-30T04:58:09.679Z,12.07
2019-04-30T05:00:39.894Z,15.93
2019-04-30T05:03:20.516Z,9.97
2019-04-30T05:05:50.027Z,13.13
2019-04-30T05:08:19.062Z,11.50
2019-04-30T05:10:49.483Z,10.40
2019-04-30T05:13:19.242Z,10.67
2019-04-30T05:15:51.300Z,13.27
2019-04-30T05:18:19.216Z,11.70
2019-04-30T05:20:50.715Z,12.83
2019-04-30T05:23:21.918Z,12.43
2019-04-30T05:25:50.285Z,10.43
2019-04-30T05:28:19.314Z,9.17
2019-04-30T05:30:49.372Z,10.47
2019-04-30T05:33:18.703Z,12.30
2019-04-30T05:35:49.481Z,7.87
2019-04-30T05:38:18.933Z,11.47
2019-04-30T05:40:49.593Z,13.47
2019-04-30T05:43:19.223Z,13.27
2019-04-30T05:45:49.179Z,11.33
2019-04-30T05:48:18.643Z,10.73
2019-04-30T05:50:49.372Z,17.17
2019-04-30T05:53:19.029Z,9.73
2019-04-30T05:55:49.383Z,12.07
2019-04-30T05:58:19.794Z,8.83
2019-04-30T06:00:49.951Z,9.90
2019-04-30T06:03:27.650Z,14.60
2019-04-30T06:05:49.619Z,10.77
2019-04-30T06:08:20.330Z,9.17
2019-04-30T06:11:11.783Z,9.13
2019-04-30T06:14:11.808Z,7.43
2019-04-30T06:16:40.855Z,12.23
2019-04-30T06:19:09.826Z,13.73
2019-04-30T06:21:39.116Z,11.77
2019-04-30T06:24:08.227Z,10.20
2019-04-30T06:26:39.400Z,11.03
2019-04-30T06:29:09.199Z,13.67
2019-04-30T06:31:40.393Z,12.33
2019-04-30T06:34:08.796Z,9.27
2019-04-30T06:36:41.958Z,8.07
2019-04-30T06:39:08.736Z,8.40
2019-04-30T06:41:39.509Z,9.30
2019-04-30T06:44:09.701Z,7.63
2019-04-30T06:46:38.931Z,7.37
2019-04-30T06:49:09.486Z,10.67
2019-04-30T06:51:38.920Z,14.80
2019-04-30T06:54:08.552Z,13.07
2019-04-30T06:56:38.769Z,10.77
2019-04-30T06:59:09.214Z,10.17
2019-04-30T07:01:38.870Z,9.03
2019-04-30T07:04:07.871Z,19.83
2019-04-30T07:06:40.856Z,12.03
2019-04-30T07:09:33.575Z,13.53
2019-04-30T07:12:27.295Z,10.40
2019-04-30T07:14:51.196Z,8.00
2019-04-30T07:17:20.160Z,12.27
2019-04-30T07:19:55.611Z,9.27
2019-04-30T07:22:36.244Z,11.93
2019-04-30T07:24:50.526Z,9.57
2019-04-30T07:27:23.940Z,8.87
2019-04-30T07:29:50.217Z,8.60
2019-04-30T07:32:19.825Z,13.30
2019-04-30T07:34:49.474Z,12.60
2019-04-30T07:37:24.268Z,16.20
2019-04-30T07:39:49.481Z,11.20
2019-04-30T07:42:19.200Z,12.27
2019-04-30T07:44:50.232Z,12.97
2019-04-30T07:47:19.711Z,14.47
2019-04-30T07:49:53.011Z,12.03
2019-04-30T07:52:21.629Z,16.63
2019-04-30T07:54:51.886Z,14.10
2019-04-30T07:57:20.760Z,9.50
2019-04-30T07:59:50.018Z,15.27
2019-04-30T08:02:20.776Z,12.33
2019-04-30T08:05:10.555Z,15.33
2019-04-30T08:07:39.350Z,11.33
2019-04-30T08:10:08.800Z,11.73
2019-04-30T08:12:42.195Z,9.33
2019-04-30T08:15:09.624Z,13.83
2019-04-30T08:17:38.990Z,10.70
2019-04-30T08:20:08.801Z,10.57
2019-04-30T08:22:40.896Z,10.33
2019-04-30T08:25:09.705Z,17.23
2019-04-30T08:27:39.278Z,17.07
2019-04-30T08:30:20.705Z,14.27
2019-04-30T08:32:39.196Z,10.67
2019-04-30T08:35:09.883Z,12.17
2019-04-30T08:37:39.472Z,10.93
2019-04-30T08:40:08.774Z,11.80
2019-04-30T08:42:40.219Z,10.30
2019-04-30T08:45:09.545Z,10.90
2019-04-30T08:47:39.321Z,14.77
2019-04-30T08:50:09.751Z,14.73
2019-04-30T08:52:39.470Z,8.23
2019-04-30T08:55:16.057Z,14.33
2019-04-30T08:57:39.658Z,12.73
2019-04-30T09:00:09.217Z,17.20
2019-04-30T09:02:39.274Z,9.37
2019-04-30T09:05:14.849Z,13.13
2019-04-30T09:07:43.983Z,16.07
2019-04-30T09:10:13.050Z,12.87
2019-04-30T09:12:42.047Z,16.57
2019-04-30T09:15:11.106Z,12.37
2019-04-30T09:17:40.139Z,8.67
2019-04-30T09:20:09.199Z,10.60
2019-04-30T09:22:39.339Z,12.00
2019-04-30T09:25:09.302Z,11.30
2019-04-30T09:27:39.735Z,10.27
2019-04-30T09:30:10.400Z,12.87
2019-04-30T09:32:39.525Z,13.60
2019-04-30T09:35:09.541Z,8.67
2019-04-30T09:37:39.115Z,9.33
2019-04-30T09:40:17.687Z,9.23
2019-04-30T09:42:39.978Z,9.10
2019-04-30T09:45:09.028Z,7.33
2019-04-30T09:47:38.110Z,11.83
2019-04-30T09:50:09.018Z,10.80
2019-04-30T09:52:39.648Z,7.50
2019-04-30T09:55:09.580Z,7.30
2019-04-30T09:57:39.114Z,9.30
2019-04-30T10:00:09.403Z,10.30
2019-04-30T10:02:38.887Z,11.93
2019-04-30T10:05:08.439Z,11.70
2019-04-30T10:07:39.281Z,8.00
2019-04-30T10:10:11.248Z,5.67
2019-04-30T10:12:39.567Z,8.60
2019-04-30T10:15:10.308Z,7.80
2019-04-30T10:17:41.084Z,5.20
2019-04-30T10:20:12.144Z,13.83
2019-04-30T10:22:41.239Z,7.40
2019-04-30T10:25:10.540Z,5.20
2019-04-30T10:27:39.647Z,4.13
2019-04-30T10:30:09.364Z,9.50
2019-04-30T10:32:38.507Z,5.57
2019-04-30T10:35:07.651Z,8.43
2019-04-30T10:37:38.615Z,6.03
2019-04-30T10:40:07.667Z,4.07
2019-04-30T10:42:36.656Z,7.97
2019-04-30T10:45:07.154Z,6.63
2019-04-30T10:47:36.163Z,7.67
2019-04-30T10:50:06.062Z,4.23
2019-04-30T10:52:35.075Z,10.27
2019-04-30T10:55:04.659Z,6.60
2019-04-30T10:57:33.695Z,5.23
2019-04-30T11:00:02.679Z,9.67
2019-04-30T11:02:31.648Z,3.43
2019-04-30T11:05:00.650Z,4.47
2019-04-30T11:07:29.595Z,6.03
2019-04-30T11:09:58.934Z,4.13
2019-04-30T11:12:29.217Z,5.10
2019-04-30T11:14:58.348Z,5.90
2019-04-30T11:17:29.587Z,6.97
2019-04-30T11:19:59.173Z,5.97
2019-04-30T11:22:28.599Z,4.53
2019-04-30T11:25:02.260Z,6.83
2019-04-30T11:27:30.427Z,4.90
2019-04-30T11:30:03.536Z,5.00
2019-04-30T11:32:29.560Z,5.17
2019-04-30T11:34:58.569Z,5.57
2019-04-30T11:37:27.600Z,4.50
2019-04-30T11:39:56.698Z,3.80
2019-04-30T11:42:25.765Z,4.87
2019-04-30T11:44:54.832Z,5.93
2019-04-30T11:47:25.085Z,7.37
2019-04-30T11:49:54.547Z,6.23
2019-04-30T11:52:23.777Z,5.50
2019-04-30T11:54:54.613Z,5.67
2019-04-30T11:57:23.527Z,5.93
2019-04-30T11:59:52.511Z,6.20
2019-04-30T12:02:35.547Z,7.27
2019-04-30T12:05:05.371Z,7.77
2019-04-30T12:07:43.442Z,6.03
2019-04-30T12:10:22.982Z,3.90
2019-04-30T12:12:51.948Z,4.63
2019-04-30T12:15:21.137Z,5.50
2019-04-30T12:17:50.121Z,4.97
2019-04-30T12:20:19.691Z,4.93
2019-04-30T12:22:49.312Z,16.40
2019-04-30T12:25:18.691Z,5.43
2019-04-30T12:27:48.807Z,3.40
2019-04-30T12:30:20.492Z,5.90
2019-04-30T12:32:49.347Z,17.13
2019-04-30T12:35:18.541Z,13.37
2019-04-30T12:37:50.869Z,5.50
2019-04-30T12:40:26.656Z,6.77
2019-04-30T12:42:48.927Z,10.70
2019-04-30T12:45:19.451Z,7.20
2019-04-30T12:47:52.854Z,6.20
2019-04-30T12:50:39.227Z,4.50
2019-04-30T12:53:11.336Z,4.93
2019-04-30T12:56:00.359Z,7.17
2019-04-30T12:58:29.479Z,8.43
2019-04-30T13:00:59.166Z,7.70
2019-04-30T13:03:28.411Z,14.63
2019-04-30T13:06:01.270Z,9.40
2019-04-30T13:08:30.056Z,14.43
2019-04-30T13:10:59.779Z,15.77
2019-04-30T13:13:31.423Z,10.80
2019-04-30T13:16:00.058Z,11.03
2019-04-30T13:18:29.580Z,8.47
2019-04-30T13:20:59.385Z,6.83
2019-04-30T13:23:29.796Z,6.53
2019-04-30T13:26:00.859Z,5.10
2019-04-30T13:28:31.128Z,8.10
2019-04-30T13:31:00.082Z,10.97
2019-04-30T13:33:35.546Z,11.83
2019-04-30T13:36:04.584Z,13.53
2019-04-30T13:38:52.290Z,5.57
2019-04-30T13:41:46.330Z,7.00
2019-04-30T13:44:19.498Z,4.37
2019-04-30T13:46:48.576Z,4.10
2019-04-30T13:49:17.518Z,5.20
2019-04-30T13:51:46.527Z,6.23
2019-04-30T13:54:15.555Z,6.40
2019-04-30T13:56:44.510Z,5.40
2019-04-30T13:59:13.514Z,4.17
2019-04-30T14:01:42.523Z,3.90
2019-04-30T14:04:36.271Z,5.07
2019-04-30T14:07:27.358Z,4.37
2019-04-30T14:09:56.887Z,16.47
2019-04-30T14:12:25.954Z,9.40
2019-04-30T14:14:54.942Z,6.47
2019-04-30T14:17:24.048Z,3.53
2019-04-30T14:19:53.060Z,5.17
2019-04-30T14:22:22.007Z,4.97
2019-04-30T14:24:51.015Z,4.13
2019-04-30T14:27:19.955Z,4.43
2019-04-30T14:29:49.530Z,3.27
2019-04-30T14:32:18.660Z,5.67
2019-04-30T14:34:50.392Z,3.27
2019-04-30T14:37:18.235Z,6.13
2019-04-30T14:39:47.245Z,3.97
2019-04-30T14:42:17.840Z,3.10
2019-04-30T14:44:49.531Z,4.23
2019-04-30T14:47:30.801Z,3.93
2019-04-30T14:50:13.159Z,8.03
2019-04-30T14:52:48.792Z,3.70
2019-04-30T14:55:49.563Z,3.47
2019-04-30T14:58:34.188Z,2.70
2019-04-30T15:01:24.931Z,3.00
2019-04-30T15:03:53.870Z,4.57
2019-04-30T15:06:22.875Z,7.23
2019-04-30T15:08:51.859Z,5.27
2019-04-30T15:11:20.859Z,6.23
2019-04-30T15:13:49.911Z,2.90
2019-04-30T15:16:18.918Z,3.07
2019-04-30T15:18:47.879Z,28.93
2019-04-30T15:21:16.872Z,20.93
2019-04-30T15:24:01.471Z,11.23
2019-04-30T15:26:28.967Z,8.97
2019-04-30T15:28:59.978Z,6.90
2019-04-30T15:31:29.627Z,15.23
2019-04-30T15:34:19.247Z,6.63
2019-04-30T15:36:49.297Z,1.50
2019-04-30T15:39:39.113Z,4.60
2019-04-30T15:42:07.999Z,4.53
2019-04-30T15:44:40.093Z,3.30
2019-04-30T15:47:09.177Z,1.60
2019-04-30T15:49:38.345Z,2.23
2019-04-30T15:52:08.970Z,3.50
2019-04-30T15:54:39.195Z,5.73
2019-04-30T15:57:08.957Z,3.43
2019-04-30T15:59:44.615Z,7.07
2019-04-30T16:02:25.041Z,2.87
2019-04-30T16:05:11.565Z,2.60
2019-04-30T16:08:04.667Z,2.20
2019-04-30T16:10:50.718Z,2.37
2019-04-30T16:13:21.378Z,1.37
2019-04-30T16:15:50.335Z,1.60
2019-04-30T16:18:19.636Z,3.67
2019-04-30T16:20:49.867Z,2.40
2019-04-30T16:23:19.206Z,1.10
2019-04-30T16:25:48.403Z,3.17
2019-04-30T16:28:17.365Z,4.47
2019-04-30T16:30:47.980Z,1.73
2019-04-30T16:33:16.932Z,2.93
2019-04-30T16:35:45.922Z,4.30
2019-04-30T16:38:14.887Z,1.97
2019-04-30T16:40:43.843Z,5.10
2019-04-30T16:43:12.833Z,3.50
2019-04-30T16:45:41.863Z,3.33
2019-04-30T16:48:12.062Z,1.53
2019-04-30T16:50:41.122Z,1.20
2019-04-30T16:53:10.110Z,1.50
2019-04-30T16:55:39.058Z,2.10
2019-04-30T16:58:08.970Z,2.37
2019-04-30T17:00:39.165Z,2.33
2019-04-30T17:03:13.675Z,2.00
2019-04-30T17:05:50.572Z,3.07
2019-04-30T17:08:31.077Z,1.70
2019-04-30T17:11:25.018Z,3.90
2019-04-30T17:14:00.654Z,3.20
2019-04-30T17:16:30.218Z,3.57
2019-04-30T17:18:59.244Z,4.57
2019-04-30T17:21:29.660Z,3.33
2019-04-30T17:23:58.934Z,1.73
2019-04-30T17:26:27.909Z,2.03
2019-04-30T17:28:56.913Z,4.50
2019-04-30T17:31:25.863Z,3.97
2019-04-30T17:33:54.859Z,8.33
2019-04-30T17:36:23.818Z,26.40
2019-04-30T17:38:52.816Z,9.50
2019-04-30T17:41:21.832Z,10.40
2019-04-30T17:43:50.795Z,8.40
2019-04-30T17:46:20.175Z,4.87
2019-04-30T17:48:49.566Z,6.63
2019-04-30T17:51:18.778Z,10.10
2019-04-30T17:54:05.493Z,2.20
2019-04-30T17:56:34.517Z,4.40
2019-04-30T17:59:03.481Z,1.80
2019-04-30T18:01:32.584Z,1.77
2019-04-30T18:04:01.547Z,1.43
2019-04-30T18:06:30.547Z,1.17
2019-04-30T18:08:59.650Z,1.47
2019-04-30T18:11:29.576Z,1.40
2019-04-30T18:13:59.001Z,3.03
2019-04-30T18:16:28.660Z,1.90
2019-04-30T18:19:08.669Z,3.23
2019-04-30T18:21:41.136Z,1.30
2019-04-30T18:24:21.086Z,1.47
2019-04-30T18:26:54.675Z,1.20
2019-04-30T18:29:23.725Z,2.40
2019-04-30T18:31:52.687Z,1.43
2019-04-30T18:34:21.691Z,1.60
2019-04-30T18:36:51.204Z,2.00
2019-04-30T18:39:20.359Z,1.43
2019-04-30T18:41:49.305Z,2.50
2019-04-30T18:44:19.546Z,2.87
2019-04-30T18:46:49.095Z,1.67
2019-04-30T18:49:18.749Z,1.80
2019-04-30T18:51:49.231Z,4.23
2019-04-30T18:54:20.808Z,3.47
2019-04-30T18:56:49.019Z,2.83
2019-04-30T18:59:19.641Z,1.80
2019-04-30T19:01:48.740Z,8.17
2019-04-30T19:04:18.944Z,2.20
2019-04-30T19:06:48.242Z,2.20
2019-04-30T19:09:31.103Z,1.90
2019-04-30T19:12:08.557Z,2.47
2019-04-30T19:15:08.612Z,2.97
2019-04-30T19:17:56.486Z,1.80
2019-04-30T19:20:29.648Z,1.03
2019-04-30T19:22:58.617Z,0.80
2019-04-30T19:25:28.889Z,0.87
2019-04-30T19:28:09.569Z,0.83
2019-04-30T19:30:29.282Z,0.63
2019-04-30T19:32:59.119Z,1.37
2019-04-30T19:35:28.065Z,0.80
2019-04-30T19:37:58.823Z,1.03
2019-04-30T19:40:28.631Z,1.57
2019-04-30T19:42:57.645Z,0.90
2019-04-30T19:45:26.748Z,0.90
2019-04-30T19:47:55.747Z,0.90
2019-04-30T19:50:24.720Z,2.07
2019-04-30T19:52:53.728Z,1.33
2019-04-30T19:55:22.710Z,1.43
2019-04-30T19:57:51.731Z,1.13
2019-04-30T20:00:20.904Z,1.30
2019-04-30T20:02:49.886Z,1.30
2019-04-30T20:05:19.395Z,1.83
2019-04-30T20:07:49.346Z,5.27
2019-04-30T20:10:19.596Z,1.60
2019-04-30T20:12:49.782Z,2.97
2019-04-30T20:15:21.679Z,2.77
2019-04-30T20:17:49.963Z,2.83
2019-04-30T20:20:19.005Z,3.77
2019-04-30T20:22:48.023Z,2.53
2019-04-30T20:25:18.963Z,1.30
2019-04-30T20:27:49.469Z,1.47
2019-04-30T20:30:19.539Z,2.17
2019-04-30T20:32:49.058Z,1.30
2019-04-30T20:35:19.255Z,1.57
2019-04-30T20:38:05.767Z,2.30
2019-04-30T20:40:43.308Z,1.20
2019-04-30T20:43:06.155Z,1.00
2019-04-30T20:45:35.115Z,2.20
2019-04-30T20:48:04.320Z,1.10
2019-04-30T20:50:33.276Z,1.37
2019-04-30T20:53:02.271Z,3.07
2019-04-30T20:55:31.224Z,0.80
2019-04-30T20:58:00.214Z,1.60
2019-04-30T21:00:29.265Z,1.20
2019-04-30T21:02:59.823Z,1.37
2019-04-30T21:05:28.954Z,1.73
2019-04-30T21:07:57.959Z,2.40
2019-04-30T21:10:26.911Z,1.63
2019-04-30T21:12:55.907Z,1.93
2019-04-30T21:15:24.898Z,1.13
2019-04-30T21:17:53.907Z,1.20
2019-04-30T21:20:22.889Z,1.57
2019-04-30T21:22:51.856Z,3.17
2019-04-30T21:25:20.885Z,1.50
2019-04-30T21:27:50.087Z,1.13
2019-04-30T21:30:19.146Z,3.40
2019-04-30T21:33:04.440Z,1.80
2019-04-30T21:35:42.553Z,3.37
2019-04-30T21:38:11.587Z,1.10
2019-04-30T21:40:40.566Z,1.53
2019-04-30T21:43:09.566Z,1.50
2019-04-30T21:45:39.854Z,1.13
2019-04-30T21:48:09.206Z,1.53
2019-04-30T21:50:39.748Z,2.10
2019-04-30T21:53:09.851Z,2.73
2019-04-30T21:55:39.834Z,1.30
2019-04-30T21:58:09.574Z,1.20
2019-04-30T22:00:56.038Z,1.33
2019-04-30T22:03:24.998Z,1.93
2019-04-30T22:05:53.982Z,1.67
2019-04-30T22:08:22.934Z,3.37
2019-04-30T22:10:51.906Z,1.50
2019-04-30T22:13:20.896Z,2.47
2019-04-30T22:15:49.852Z,1.30
2019-04-30T22:18:18.848Z,1.80
2019-04-30T22:20:49.756Z,1.90
2019-04-30T22:23:18.398Z,1.57
2019-04-30T22:25:49.072Z,1.97
2019-04-30T22:28:18.080Z,1.40
2019-04-30T22:30:48.355Z,2.73
2019-04-30T22:33:19.333Z,1.87
2019-04-30T22:35:57.352Z,1.87
2019-04-30T22:38:29.257Z,2.00
2019-04-30T22:40:58.910Z,1.50
2019-04-30T22:43:28.094Z,2.70
2019-04-30T22:46:01.581Z,1.43
2019-04-30T22:48:30.539Z,1.83
2019-04-30T22:50:59.527Z,1.33
2019-04-30T22:53:28.474Z,1.40
2019-04-30T22:55:57.567Z,2.10
2019-04-30T22:58:26.606Z,1.70
2019-04-30T23:01:03.457Z,1.60
2019-04-30T23:03:33.655Z,1.40
2019-04-30T23:06:02.743Z,1.23
2019-04-30T23:08:31.699Z,1.50
2019-04-30T23:11:00.767Z,1.70
2019-04-30T23:13:29.762Z,1.80
2019-04-30T23:15:58.815Z,4.23
2019-04-30T23:18:27.797Z,2.23
2019-04-30T23:20:56.764Z,2.17
2019-04-30T23:23:25.751Z,3.00
2019-04-30T23:25:54.703Z,1.57
2019-04-30T23:28:23.731Z,4.77
2019-04-30T23:30:52.723Z,2.30
2019-04-30T23:33:21.669Z,1.60
2019-04-30T23:35:50.655Z,2.23
2019-04-30T23:38:19.633Z,2.00
2019-04-30T23:40:50.644Z,1.93
2019-04-30T23:43:19.835Z,2.40
2019-04-30T23:45:48.827Z,2.33
2019-04-30T23:48:17.788Z,2.63
2019-04-30T23:50:46.766Z,1.30
2019-04-30T23:53:15.771Z,1.90
2019-04-30T23:55:44.790Z,1.33
2019-04-30T23:58:13.734Z,1.70
